createdAt,value
2019-04-21T00:01:55.980Z,16.30
2019-04-21T00:04:38.110Z,16.30
2019-04-21T00:07:13.201Z,16.20
2019-04-21T00:12:18.127Z,16.10
2019-04-21T00:14:45.066Z,16.10
2019-04-21T00:17:07.952Z,16.00
2019-04-21T00:19:38.626Z,16.00
2019-04-21T00:22:19.456Z,16.00
2019-04-21T00:24:56.235Z,16.00
2019-04-21T00:27:28.085Z,15.90
2019-04-21T00:30:04.520Z,15.90
2019-04-21T00:32:29.220Z,15.80
2019-04-21T00:34:52.288Z,15.80
2019-04-21T00:37:28.159Z,15.70
2019-04-21T00:40:14.453Z,15.70
2019-04-21T00:42:38.566Z,15.60
2019-04-21T00:45:07.899Z,15.60
2019-04-21T00:47:38.769Z,15.60
2019-04-21T00:50:12.812Z,15.50
2019-04-21T00:53:13.077Z,15.50
2019-04-21T00:58:26.866Z,15.40
2019-04-21T01:00:51.550Z,15.40
2019-04-21T01:03:20.684Z,15.30
2019-04-21T01:05:56.087Z,15.30
2019-04-21T01:08:21.977Z,15.20
2019-04-21T01:10:49.246Z,15.10
2019-04-21T01:13:27.782Z,15.00
2019-04-21T01:16:00.395Z,15.00
2019-04-21T01:18:30.736Z,14.90
2019-04-21T01:20:38.413Z,14.80
2019-04-21T01:23:08.462Z,14.80
2019-04-21T01:25:44.878Z,14.80
2019-04-21T01:28:24.096Z,14.70
2019-04-21T01:30:57.125Z,14.70
2019-04-21T01:33:34.973Z,14.70
2019-04-21T01:35:58.307Z,14.60
2019-04-21T01:38:43.816Z,14.60
2019-04-21T01:41:09.477Z,14.60
2019-04-21T01:43:38.413Z,14.50
2019-04-21T01:46:06.647Z,14.50
2019-04-21T01:48:37.180Z,14.50
2019-04-21T01:51:05.304Z,14.50
2019-04-21T01:53:48.314Z,14.40
2019-04-21T01:56:38.858Z,14.40
2019-04-21T01:59:00.682Z,14.40
2019-04-21T02:01:39.043Z,14.40
2019-04-21T02:04:16.722Z,14.40
2019-04-21T02:06:44.433Z,14.30
2019-04-21T02:09:15.388Z,14.30
2019-04-21T02:11:50.273Z,14.20
2019-04-21T02:14:22.923Z,14.20
2019-04-21T02:16:57.523Z,14.10
2019-04-21T02:19:21.607Z,14.10
2019-04-21T02:21:47.803Z,14.00
2019-04-21T02:24:31.660Z,14.00
2019-04-21T02:27:04.201Z,13.90
2019-04-21T02:37:28.521Z,13.70
2019-04-21T02:39:51.397Z,13.70
2019-04-21T02:42:13.033Z,13.70
2019-04-21T02:44:52.260Z,13.60
2019-04-21T02:47:27.319Z,13.60
2019-04-21T02:54:53.973Z,13.50
2019-04-21T02:57:26.877Z,13.40
2019-04-21T03:00:06.900Z,13.40
2019-04-21T03:03:09.149Z,13.40
2019-04-21T03:06:02.400Z,13.30
2019-04-21T03:11:08.921Z,13.20
2019-04-21T03:18:42.080Z,13.00
2019-04-21T03:21:13.375Z,13.00
2019-04-21T03:28:36.414Z,12.80
2019-04-21T03:31:39.272Z,12.80
2019-04-21T03:34:15.222Z,12.80
2019-04-21T03:38:51.109Z,12.70
2019-04-21T03:46:23.090Z,12.60
2019-04-21T03:53:53.922Z,12.30
2019-04-21T03:56:45.338Z,12.30
2019-04-21T03:58:58.135Z,12.30
2019-04-21T04:01:44.482Z,12.30
2019-04-21T04:10:13.949Z,12.20
2019-04-21T04:12:50.446Z,12.10
2019-04-21T04:15:34.782Z,12.00
2019-04-21T04:17:51.523Z,12.00
2019-04-21T04:20:28.620Z,11.90
2019-04-21T04:22:56.274Z,11.90
2019-04-21T04:25:27.980Z,11.80
2019-04-21T04:30:31.710Z,11.70
2019-04-21T04:32:59.464Z,11.60
2019-04-21T04:35:38.016Z,11.50
2019-04-21T04:38:03.343Z,11.40
2019-04-21T04:40:55.940Z,11.20
2019-04-21T04:43:28.560Z,11.20
2019-04-21T04:45:56.406Z,11.10
2019-04-21T04:48:27.910Z,11.10
2019-04-21T04:51:01.300Z,11.10
2019-04-21T04:53:41.914Z,11.20
2019-04-21T04:56:03.701Z,11.20
2019-04-21T05:01:14.755Z,11.20
2019-04-21T05:06:34.527Z,11.30
2019-04-21T05:11:44.607Z,11.40
2019-04-21T05:16:41.095Z,11.60
2019-04-21T05:23:51.093Z,11.70
2019-04-21T05:26:16.272Z,11.70
2019-04-21T05:28:47.080Z,11.80
2019-04-21T05:31:51.127Z,11.80
2019-04-21T05:34:21.985Z,11.90
2019-04-21T05:37:10.433Z,11.90
2019-04-21T05:39:40.684Z,12.00
2019-04-21T05:42:08.129Z,12.00
2019-04-21T05:47:29.568Z,12.20
2019-04-21T05:49:56.036Z,12.30
2019-04-21T05:52:22.551Z,12.30
2019-04-21T05:55:06.303Z,12.40
2019-04-21T05:57:28.897Z,12.50
2019-04-21T06:00:04.338Z,12.60
2019-04-21T06:02:35.488Z,12.90
2019-04-21T06:07:33.437Z,14.30
2019-04-21T06:10:05.440Z,15.50
2019-04-21T06:12:40.758Z,16.80
2019-04-21T06:15:14.338Z,18.10
2019-04-21T06:17:43.925Z,19.50
2019-04-21T06:20:12.567Z,20.80
2019-04-21T06:22:47.367Z,21.90
2019-04-21T06:25:41.613Z,23.10
2019-04-21T06:27:52.574Z,24.10
2019-04-21T06:30:22.085Z,25.20
2019-04-21T06:35:48.391Z,27.10
2019-04-21T06:38:13.813Z,28.00
2019-04-21T06:40:42.438Z,28.70
2019-04-21T06:43:19.662Z,29.30
2019-04-21T06:45:51.109Z,29.80
2019-04-21T06:48:20.749Z,30.40
2019-04-21T06:50:46.122Z,31.00
2019-04-21T06:53:20.679Z,31.50
2019-04-21T06:55:44.105Z,32.10
2019-04-21T06:58:23.163Z,32.50
2019-04-21T07:00:47.712Z,33.00
2019-04-21T07:05:57.609Z,33.90
2019-04-21T07:10:56.203Z,34.70
2019-04-21T07:13:23.739Z,35.10
2019-04-21T07:16:02.576Z,35.50
2019-04-21T07:18:37.489Z,35.80
2019-04-21T07:21:01.230Z,36.10
2019-04-21T07:23:32.367Z,36.50
2019-04-21T07:26:03.187Z,36.90
2019-04-21T07:28:32.237Z,37.20
2019-04-21T07:31:09.927Z,37.50
2019-04-21T07:36:11.174Z,38.30
2019-04-21T07:38:33.170Z,38.70
2019-04-21T07:41:02.558Z,39.00
2019-04-21T07:43:34.343Z,39.40
2019-04-21T07:46:06.458Z,39.70
2019-04-21T07:48:49.719Z,40.00
2019-04-21T07:51:31.627Z,40.30
2019-04-21T07:54:01.941Z,40.60
2019-04-21T07:56:17.829Z,40.80
2019-04-21T07:59:05.327Z,41.00
2019-04-21T08:01:37.066Z,41.30
2019-04-21T08:04:23.110Z,41.40
2019-04-21T08:06:40.327Z,41.60
2019-04-21T08:09:08.859Z,41.80
2019-04-21T08:11:37.792Z,41.90
2019-04-21T08:14:11.240Z,42.00
2019-04-21T08:16:44.956Z,42.00
2019-04-21T08:19:14.493Z,42.10
2019-04-21T08:21:55.799Z,42.30
2019-04-21T08:24:16.279Z,42.60
2019-04-21T08:26:51.807Z,42.90
2019-04-21T08:29:26.015Z,43.20
2019-04-21T08:32:00.728Z,43.40
2019-04-21T08:34:21.630Z,43.60
2019-04-21T08:36:52.775Z,43.70
2019-04-21T08:39:33.162Z,43.80
2019-04-21T08:41:57.167Z,43.80
2019-04-21T08:44:38.190Z,43.90
2019-04-21T08:46:58.781Z,43.90
2019-04-21T08:49:26.761Z,43.90
2019-04-21T08:52:14.807Z,43.90
2019-04-21T08:54:36.779Z,44.00
2019-04-21T08:57:28.865Z,44.00
2019-04-21T09:03:06.442Z,44.10
2019-04-21T09:05:35.644Z,44.30
2019-04-21T09:08:05.280Z,44.40
2019-04-21T09:10:42.218Z,44.50
2019-04-21T09:13:04.522Z,44.70
2019-04-21T09:15:35.058Z,44.80
2019-04-21T09:18:10.205Z,45.10
2019-04-21T09:20:46.068Z,45.30
2019-04-21T09:23:18.141Z,45.40
2019-04-21T09:25:46.748Z,45.30
2019-04-21T09:28:11.124Z,45.30
2019-04-21T09:30:33.793Z,45.10
2019-04-21T09:33:02.414Z,45.00
2019-04-21T09:35:33.468Z,45.00
2019-04-21T09:38:16.017Z,45.00
2019-04-21T09:40:40.095Z,45.10
2019-04-21T09:43:10.316Z,45.20
2019-04-21T09:45:38.049Z,45.30
2019-04-21T09:48:12.429Z,45.30
2019-04-21T09:50:39.718Z,45.30
2019-04-21T09:53:16.791Z,45.30
2019-04-21T09:55:48.681Z,45.20
2019-04-21T09:58:21.796Z,45.10
2019-04-21T10:00:56.606Z,44.90
2019-04-21T10:03:17.997Z,44.80
2019-04-21T10:05:47.698Z,44.70
2019-04-21T10:08:17.212Z,44.70
2019-04-21T10:10:46.902Z,44.70
2019-04-21T10:13:17.120Z,44.60
2019-04-21T10:15:48.982Z,44.30
2019-04-21T10:18:19.997Z,44.00
2019-04-21T10:20:49.597Z,43.60
2019-04-21T10:23:19.110Z,43.50
2019-04-21T10:25:48.657Z,43.30
2019-04-21T10:28:19.097Z,43.00
2019-04-21T10:30:49.066Z,42.90
2019-04-21T10:33:18.698Z,42.80
2019-04-21T10:35:48.938Z,42.60
2019-04-21T10:38:28.222Z,42.40
2019-04-21T10:40:50.090Z,42.20
2019-04-21T10:43:22.152Z,42.00
2019-04-21T10:45:51.007Z,41.90
2019-04-21T10:48:20.985Z,41.80
2019-04-21T10:50:52.766Z,41.80
2019-04-21T10:53:27.049Z,41.70
2019-04-21T10:56:10.444Z,41.70
2019-04-21T10:58:34.176Z,41.60
2019-04-21T11:01:10.441Z,41.60
2019-04-21T11:03:44.882Z,41.50
2019-04-21T11:06:16.925Z,41.30
2019-04-21T11:08:50.666Z,41.10
2019-04-21T11:11:21.671Z,40.80
2019-04-21T11:13:52.625Z,40.60
2019-04-21T11:16:23.388Z,40.40
2019-04-21T11:18:53.667Z,40.10
2019-04-21T11:21:24.816Z,39.90
2019-04-21T11:23:54.477Z,39.60
2019-04-21T11:26:24.367Z,39.40
2019-04-21T11:28:54.913Z,39.20
2019-04-21T11:31:25.019Z,39.10
2019-04-21T11:33:55.381Z,39.00
2019-04-21T11:36:25.122Z,38.80
2019-04-21T11:39:24.627Z,38.70
2019-04-21T11:41:46.177Z,38.70
2019-04-21T11:44:16.323Z,38.50
2019-04-21T11:46:46.652Z,38.30
2019-04-21T11:49:17.975Z,38.00
2019-04-21T11:51:49.023Z,37.60
2019-04-21T11:54:19.171Z,37.20
2019-04-21T11:56:48.834Z,36.80
2019-04-21T11:59:19.534Z,36.30
2019-04-21T12:01:49.800Z,36.00
2019-04-21T12:04:19.414Z,35.60
2019-04-21T12:06:50.616Z,35.20
2019-04-21T12:09:21.022Z,34.90
2019-04-21T12:11:51.495Z,34.80
2019-04-21T12:14:21.770Z,34.60
2019-04-21T12:16:51.278Z,34.60
2019-04-21T12:19:21.060Z,34.60
2019-04-21T12:22:01.181Z,34.50
2019-04-21T12:24:22.096Z,34.50
2019-04-21T12:26:51.917Z,34.50
2019-04-21T12:29:22.777Z,34.60
2019-04-21T12:32:24.159Z,34.50
2019-04-21T12:34:55.314Z,34.40
2019-04-21T12:37:24.918Z,34.20
2019-04-21T12:39:54.800Z,33.90
2019-04-21T12:42:24.900Z,33.50
2019-04-21T12:44:55.114Z,33.10
2019-04-21T12:47:25.892Z,32.70
2019-04-21T12:49:56.915Z,32.30
2019-04-21T12:52:27.334Z,32.10
2019-04-21T12:54:57.621Z,32.00
2019-04-21T12:57:28.715Z,32.00
2019-04-21T12:59:58.499Z,32.00
2019-04-21T13:02:29.336Z,31.90
2019-04-21T13:04:59.687Z,31.90
2019-04-21T13:07:29.358Z,31.80
2019-04-21T13:10:00.104Z,31.70
2019-04-21T13:12:31.092Z,31.60
2019-04-21T13:15:02.513Z,31.60
2019-04-21T13:17:33.119Z,31.50
2019-04-21T13:20:03.464Z,31.40
2019-04-21T13:22:34.200Z,31.30
2019-04-21T13:25:05.420Z,31.20
2019-04-21T13:27:36.448Z,31.00
2019-04-21T13:30:10.468Z,30.90
2019-04-21T13:32:40.761Z,30.70
2019-04-21T13:35:10.856Z,30.50
2019-04-21T13:37:41.533Z,30.40
2019-04-21T13:40:46.140Z,30.30
2019-04-21T13:43:04.360Z,30.30
2019-04-21T13:45:34.316Z,30.20
2019-04-21T13:48:04.516Z,30.00
2019-04-21T13:50:35.284Z,30.00
2019-04-21T13:53:05.064Z,29.90
2019-04-21T13:55:36.878Z,29.80
2019-04-21T13:58:06.351Z,29.80
2019-04-21T14:00:37.972Z,29.70
2019-04-21T14:03:07.903Z,29.70
2019-04-21T14:05:38.206Z,29.60
2019-04-21T14:08:09.280Z,29.50
2019-04-21T14:10:39.763Z,29.30
2019-04-21T14:13:09.695Z,29.20
2019-04-21T14:15:39.949Z,29.10
2019-04-21T14:18:10.937Z,29.10
2019-04-21T14:20:40.477Z,29.00
2019-04-21T14:23:21.336Z,28.90
2019-04-21T14:25:41.967Z,28.80
2019-04-21T14:28:12.522Z,28.70
2019-04-21T14:30:44.137Z,28.60
2019-04-21T14:33:14.213Z,28.60
2019-04-21T14:35:45.074Z,28.60
2019-04-21T14:38:14.836Z,28.60
2019-04-21T14:40:44.941Z,28.50
2019-04-21T14:43:16.466Z,28.50
2019-04-21T14:45:54.735Z,28.50
2019-04-21T14:49:03.560Z,28.40
2019-04-21T14:51:45.409Z,28.40
2019-04-21T14:54:44.664Z,28.40
2019-04-21T14:57:15.534Z,28.40
2019-04-21T14:59:46.861Z,28.40
2019-04-21T15:02:18.011Z,28.30
2019-04-21T15:04:49.248Z,28.30
2019-04-21T15:07:21.333Z,28.20
2019-04-21T15:10:02.432Z,28.20
2019-04-21T15:12:23.609Z,28.20
2019-04-21T15:14:53.733Z,28.10
2019-04-21T15:17:24.923Z,28.10
2019-04-21T15:20:00.697Z,28.10
2019-04-21T15:22:30.442Z,28.00
2019-04-21T15:25:16.276Z,28.00
2019-04-21T15:27:46.809Z,28.00
2019-04-21T15:30:16.579Z,28.00
2019-04-21T15:32:46.513Z,27.90
2019-04-21T15:35:17.372Z,27.90
2019-04-21T15:37:47.175Z,27.80
2019-04-21T15:40:26.354Z,27.80
2019-04-21T15:42:48.600Z,27.70
2019-04-21T15:45:18.827Z,27.70
2019-04-21T15:47:49.970Z,27.70
2019-04-21T15:50:21.350Z,27.80
2019-04-21T15:52:51.810Z,27.70
2019-04-21T15:55:46.724Z,27.70
2019-04-21T15:58:24.757Z,27.70
2019-04-21T16:01:06.941Z,27.70
2019-04-21T16:03:36.600Z,27.80
2019-04-21T16:06:07.615Z,27.70
2019-04-21T16:08:37.828Z,27.70
2019-04-21T16:11:11.100Z,27.70
2019-04-21T16:13:41.675Z,27.70
2019-04-21T16:16:12.603Z,27.70
2019-04-21T16:18:42.662Z,27.60
2019-04-21T16:21:13.698Z,27.60
2019-04-21T16:23:44.463Z,27.60
2019-04-21T16:26:14.963Z,27.50
2019-04-21T16:28:45.175Z,27.50
2019-04-21T16:31:16.093Z,27.40
2019-04-21T16:33:49.043Z,27.40
2019-04-21T16:36:20.085Z,27.40
2019-04-21T16:38:51.364Z,27.30
2019-04-21T16:41:22.419Z,27.30
2019-04-21T16:43:53.209Z,27.30
2019-04-21T16:46:23.277Z,27.30
2019-04-21T16:48:53.758Z,27.30
2019-04-21T16:51:24.462Z,27.30
2019-04-21T16:54:06.017Z,27.20
2019-04-21T16:56:59.982Z,27.20
2019-04-21T16:59:38.987Z,27.20
2019-04-21T17:02:08.673Z,27.20
2019-04-21T17:04:38.287Z,27.10
2019-04-21T17:07:09.212Z,27.00
2019-04-21T17:09:40.910Z,26.90
2019-04-21T17:12:14.658Z,26.90
2019-04-21T17:14:57.120Z,26.90
2019-04-21T17:17:36.879Z,26.80
2019-04-21T17:19:54.053Z,26.80
2019-04-21T17:22:21.994Z,26.80
2019-04-21T17:24:52.640Z,26.80
2019-04-21T17:27:23.049Z,26.70
2019-04-21T17:29:54.686Z,26.70
2019-04-21T17:32:32.097Z,26.60
2019-04-21T17:34:59.563Z,26.50
2019-04-21T17:37:30.582Z,26.50
2019-04-21T17:40:04.814Z,26.40
2019-04-21T17:42:42.954Z,26.30
2019-04-21T17:45:05.506Z,26.20
2019-04-21T17:47:44.634Z,26.20
2019-04-21T17:50:15.624Z,26.10
2019-04-21T17:52:58.119Z,26.00
2019-04-21T17:55:31.221Z,26.00
2019-04-21T17:58:13.469Z,25.80
2019-04-21T18:03:31.610Z,25.70
2019-04-21T18:05:51.139Z,25.60
2019-04-21T18:08:36.934Z,25.50
2019-04-21T18:10:50.700Z,25.40
2019-04-21T18:13:14.582Z,25.30
2019-04-21T18:16:00.018Z,25.20
2019-04-21T18:18:14.494Z,25.10
2019-04-21T18:20:48.186Z,25.00
2019-04-21T18:23:39.431Z,24.90
2019-04-21T18:26:07.120Z,24.80
2019-04-21T18:28:32.527Z,24.70
2019-04-21T18:31:12.135Z,24.60
2019-04-21T18:33:47.865Z,24.60
2019-04-21T18:36:46.035Z,24.50
2019-04-21T18:39:47.639Z,24.40
2019-04-21T18:42:32.774Z,24.30
2019-04-21T18:48:09.398Z,24.10
2019-04-21T18:51:02.859Z,24.00
2019-04-21T18:53:54.324Z,23.90
2019-04-21T18:56:16.465Z,23.80
2019-04-21T18:58:46.526Z,23.70
2019-04-21T19:01:22.436Z,23.60
2019-04-21T19:03:51.148Z,23.50
2019-04-21T19:06:32.516Z,23.40
2019-04-21T19:09:11.603Z,23.30
2019-04-21T19:11:43.544Z,23.20
2019-04-21T19:14:30.372Z,23.10
2019-04-21T19:17:00.460Z,23.00
2019-04-21T19:19:49.036Z,22.90
2019-04-21T19:21:57.696Z,22.80
2019-04-21T19:27:03.212Z,22.70
2019-04-21T19:29:28.880Z,22.60
2019-04-21T19:31:54.967Z,22.60
2019-04-21T19:34:18.460Z,22.50
2019-04-21T19:36:51.262Z,22.50
2019-04-21T19:39:25.417Z,22.40
2019-04-21T19:41:58.577Z,22.40
2019-04-21T19:44:36.996Z,22.30
2019-04-21T19:47:02.975Z,22.30
2019-04-21T19:49:43.801Z,22.20
2019-04-21T19:51:59.367Z,22.20
2019-04-21T19:54:29.911Z,22.10
2019-04-21T19:56:53.687Z,22.00
2019-04-21T19:59:32.478Z,22.00
2019-04-21T20:01:56.203Z,21.90
2019-04-21T20:04:34.415Z,21.90
2019-04-21T20:07:10.331Z,21.80
2019-04-21T20:09:46.211Z,21.70
2019-04-21T20:12:29.753Z,21.60
2019-04-21T20:15:08.497Z,21.50
2019-04-21T20:17:31.064Z,21.50
2019-04-21T20:19:44.843Z,21.40
2019-04-21T20:22:14.975Z,21.30
2019-04-21T20:24:53.955Z,21.10
2019-04-21T20:27:24.019Z,21.00
2019-04-21T20:30:07.093Z,20.90
2019-04-21T20:32:42.712Z,20.80
2019-04-21T20:35:18.136Z,20.70
2019-04-21T20:37:42.166Z,20.60
2019-04-21T20:40:02.219Z,20.50
2019-04-21T20:42:42.863Z,20.40
2019-04-21T20:45:29.642Z,20.30
2019-04-21T20:47:39.147Z,20.20
2019-04-21T20:50:17.690Z,20.20
2019-04-21T20:52:53.810Z,20.10
2019-04-21T20:55:19.383Z,20.10
2019-04-21T20:57:48.996Z,20.00
2019-04-21T21:00:32.226Z,20.00
2019-04-21T21:03:06.167Z,19.80
2019-04-21T21:05:27.659Z,19.80
2019-04-21T21:08:06.531Z,19.70
2019-04-21T21:10:33.898Z,19.60
2019-04-21T21:13:14.521Z,19.60
2019-04-21T21:15:35.865Z,19.50
2019-04-21T21:18:15.477Z,19.40
2019-04-21T21:20:43.045Z,19.30
2019-04-21T21:23:06.400Z,19.30
2019-04-21T21:25:44.631Z,19.20
2019-04-21T21:28:07.501Z,19.10
2019-04-21T21:30:41.426Z,19.10
2019-04-21T21:33:17.237Z,19.00
2019-04-21T21:35:41.117Z,18.90
2019-04-21T21:38:26.575Z,18.90
2019-04-21T21:40:49.928Z,18.80
2019-04-21T21:43:12.894Z,18.70
2019-04-21T21:45:45.825Z,18.60
2019-04-21T21:48:30.101Z,18.50
2019-04-21T21:50:49.321Z,18.50
2019-04-21T21:53:19.029Z,18.40
2019-04-21T21:55:46.711Z,18.40
2019-04-21T21:58:25.092Z,18.30
2019-04-21T22:00:54.653Z,18.30
2019-04-21T22:03:30.605Z,18.30
2019-04-21T22:06:02.192Z,18.20
2019-04-21T22:08:25.590Z,18.20
2019-04-21T22:10:55.205Z,18.10
2019-04-21T22:13:34.154Z,18.10
2019-04-21T22:16:02.986Z,18.00
2019-04-21T22:18:43.142Z,17.80
2019-04-21T22:21:11.493Z,17.60
2019-04-21T22:23:42.586Z,17.50
2019-04-21T22:26:03.064Z,17.40
2019-04-21T22:28:33.789Z,17.30
2019-04-21T22:31:05.622Z,17.20
2019-04-21T22:33:41.853Z,17.10
2019-04-21T22:36:23.830Z,17.10
2019-04-21T22:38:50.958Z,17.00
2019-04-21T22:41:21.405Z,16.90
2019-04-21T22:43:46.000Z,16.80
2019-04-21T22:46:15.476Z,16.80
2019-04-21T22:48:52.174Z,16.70
2019-04-21T22:51:23.755Z,16.70
2019-04-21T22:53:50.762Z,16.70
2019-04-21T22:56:25.816Z,16.70
2019-04-21T22:58:53.003Z,16.60
2019-04-21T23:01:28.244Z,16.60
2019-04-21T23:03:59.233Z,16.50
2019-04-21T23:06:30.458Z,16.40
2019-04-21T23:08:57.173Z,16.30
2019-04-21T23:11:34.700Z,16.30
2019-04-21T23:14:04.376Z,16.20
2019-04-21T23:16:35.583Z,16.20
2019-04-21T23:19:20.076Z,16.10
2019-04-21T23:21:53.746Z,16.10
2019-04-21T23:24:31.750Z,16.10
2019-04-21T23:26:48.639Z,16.00
2019-04-21T23:29:39.509Z,16.00
2019-04-21T23:31:55.064Z,16.00
2019-04-21T23:34:18.381Z,16.00
2019-04-21T23:36:54.474Z,15.90
2019-04-21T23:39:22.664Z,15.90
2019-04-21T23:41:47.959Z,15.80
2019-04-21T23:44:18.994Z,15.70
2019-04-21T23:46:51.273Z,15.70
2019-04-21T23:49:34.565Z,15.70
2019-04-21T23:51:56.734Z,15.60
2019-04-21T23:54:21.426Z,15.60
2019-04-21T23:56:51.754Z,15.50
2019-04-21T23:59:22.652Z,15.40
